Flugplatz Finsterwalde/Heinrichsruh

Für EDAS sind keine METAR/TAF Berichte vorhanden.
Es werden die Flugwettermeldungen vom Flugplatz Holzdorf Airport in 37 km Entfernung angezeigt.

Bericht für ETSH

vom 21.07. um 20:20 UTC

Wind 1 kt aus 250°

Sichtweite 10 km oder mehr

gering bewölkt in 5000 ft

aufgelockert bewölkt in 28000 ft

Temperatur 18.0°C

Taupunkt 13.0°C

Luftfeuchtigkeit 73%

Luftdruck 1021 hPa

ETSH 212020Z 25001KT 9999 FEW050 SCT280 18/13 Q1021 BLU+
Keine Prognose (TAF) verfügbar.
Impressum